Eibar, Spain
Current Conditions -  °F | °C
As of 11:00 AM on Sunday 25 Jan 2015 (Local Time) from LEVT Reporting Station
Broken Clouds Broken Clouds  
Wind Chill: 34°   Ceiling: 3500
Heat Index: 39°   Visibility: 6mi
Dew Point: 36°   Wind: 7mph
Humidity: 87%   Direction: 20°NNE
Pressure: 30.5"   Gusts: NA
Location:  43.18°N, 2.47°W
Report Text: LEVT 251000Z 02006KT 350V050 9999 SCT022 BKN035 04/02 Q1033
Loading
Personal Weather Stations






























Interactive Weather Map New forecast layout! Learn more

10-Day Weather Forecast

Advertisements
Track Severe Weather on mobile